ANACAPA ISLAND CA US current weather conditions

sailwx.info

Wind from 296 at 3 knots gusting 6

Air temperature 17.2° C
Dewpoint 13.5° C

Last reported at 2016-May-30 21:23 UTC.
Time now 2016-May-30 22:12 UTC

Location: N 34°01' W 119°22'.
View on Google Maps.

See reports from other nearby stations

  
Tides and Currents Weather Stations Pressure Air Temp Water Temp Dewpoint Dewpoint Depression Visibility Wind Speed Wind Dir Waves Ship Positions
date/time (UTC)wind fromknots sea level pressurealtimeterstation pressurevisibilityair tempwater tempwave heightnotes
2016-May-30 21:23 296 3 gusting 6 17.2
2016-May-30 20:23 281 3 gusting 6 16.7
2016-May-30 19:23 235 3 gusting 6 16.1
2016-May-30 18:23 237 3 gusting 5 15.6
2016-May-30 17:23 041 0 gusting 3 15.6
2016-May-30 16:23 15.6
2016-May-30 15:23 038 0 gusting 3 14.4
2016-May-30 14:23 034 0 gusting 2 14.4
2016-May-30 13:23 14.4
2016-May-30 12:23 13.9
2016-May-30 11:23 292 3 gusting 6 13.9
2016-May-30 10:23 291 4 gusting 8 13.9
2016-May-30 09:23 314 4 gusting 7 13.9
2016-May-30 08:23 310 3 gusting 9 13.9
2016-May-30 07:23 305 6 gusting 11 13.9
2016-May-30 06:23 307 6 gusting 12 13.9
2016-May-30 05:23 308 7 gusting 13 13.9
2016-May-30 04:23 309 6 gusting 11 14.4
2016-May-30 03:23 309 5 gusting 10 14.4
2016-May-30 02:23 329 6 gusting 9 15.0
2016-May-30 01:23 313 5 gusting 9 16.1
2016-May-30 00:23 306 6 gusting 8 16.7
2016-May-29 23:23 304 6 gusting 9 17.8
2016-May-29 22:23 292 5 gusting 9 19.4
2016-May-29 21:23 299 4 gusting 7 18.9
2016-May-29 20:23 294 4 gusting 7 18.3
2016-May-29 19:23 295 5 gusting 7 18.3
2016-May-29 18:23 299 4 gusting 6 17.2
2016-May-29 17:23 335 3 gusting 5 16.1
2016-May-29 16:23 206 0 gusting 4 16.1
2016-May-29 15:23 225 1 gusting 4 15.6
2016-May-29 14:23 246 2 gusting 7 14.4
2016-May-29 13:23 267 0 gusting 3 14.4
2016-May-29 12:23 063 0 gusting 5 14.4
2016-May-29 11:23 021 0 gusting 6 14.4
2016-May-29 10:23 059 3 gusting 6 14.4
2016-May-29 09:23 040 2 gusting 5 14.4
2016-May-29 08:23 073 1 gusting 5 14.4
2016-May-29 07:23 056 1 gusting 6 13.9
2016-May-29 06:23 039 1 gusting 6 14.4
2016-May-29 05:23 011 0 gusting 7 14.4
2016-May-29 04:23 277 3 gusting 8 14.4
2016-May-29 03:23 246 4 gusting 8 14.4
2016-May-29 02:23 250 6 gusting 11 15.0
2016-May-29 01:23 247 6 gusting 10 16.1
2016-May-29 00:23 248 6 gusting 12 16.1
2016-May-28 23:23 249 6 gusting 13 17.2
2016-May-28 22:23 254 6 gusting 13 17.2